Time;durP1;ratioP1;P1;durP2;ratioP2;P2;SDS_P1;SDS_P2;PMS_P1;PMS_P2;Temp;Humidity;BMP_temperature;BMP_pressure;BME280_temperature;BME280_humidity;BME280_pressure;Samples;Min_cycle;Max_cycle;Signal;HPM_P1;HPM_P2
2021/12/10 00:00:37;;;;;;;40.15;15.90;;;;;;;;;;5014295;28;20042;-76
2021/12/10 00:03:05;;;;;;;39.78;14.60;;;;;;;;;;5014439;28;20124;-75
2021/12/10 00:05:34;;;;;;;41.88;14.77;;;;;;;;;;5014226;28;20041;-76
2021/12/10 00:08:00;;;;;;;41.97;15.48;;;;;;;;;;5030519;28;20559;-76
2021/12/10 00:10:29;;;;;;;41.33;14.80;;;;;;;;;;5030882;28;20041;-76
2021/12/10 00:12:55;;;;;;;36.92;14.35;;;;;;;;;;5014156;28;20052;-76
2021/12/10 00:15:24;;;;;;;29.70;12.85;;;;;;;;;;5030525;28;20037;-77
2021/12/10 00:17:51;;;;;;;33.75;13.38;;;;;;;;;;5030399;28;20049;-75
2021/12/10 00:20:18;;;;;;;33.58;13.90;;;;;;;;;;5030302;28;20041;-76
2021/12/10 00:22:51;;;;;;;37.85;15.15;;;;;;;;;;5013781;28;20076;-77
2021/12/10 00:25:19;;;;;;;30.50;13.80;;;;;;;;;;5030817;28;20124;-76
2021/12/10 00:27:47;;;;;;;33.67;13.52;;;;;;;;;;5014305;28;20045;-76
2021/12/10 00:30:20;;;;;;;42.58;14.30;;;;;;;;;;5030261;28;20085;-77
2021/12/10 00:32:49;;;;;;;37.50;13.65;;;;;;;;;;5013967;28;20136;-76
2021/12/10 00:35:21;;;;;;;37.45;14.40;;;;;;;;;;5013900;28;20130;-76
2021/12/10 00:37:48;;;;;;;35.47;14.60;;;;;;;;;;5013697;28;20037;-76
2021/12/10 00:40:15;;;;;;;37.13;15.27;;;;;;;;;;5030195;28;20038;-76
2021/12/10 00:42:41;;;;;;;41.13;14.10;;;;;;;;;;5013654;28;20363;-76
2021/12/10 00:45:09;;;;;;;36.65;14.60;;;;;;;;;;5030460;28;20580;-77
2021/12/10 00:47:36;;;;;;;34.67;13.45;;;;;;;;;;5014089;28;20083;-76
2021/12/10 00:50:03;;;;;;;32.90;13.80;;;;;;;;;;5013439;28;20533;-76
2021/12/10 00:52:29;;;;;;;35.67;14.30;;;;;;;;;;5030146;28;20481;-76
2021/12/10 00:54:56;;;;;;;33.70;13.55;;;;;;;;;;5030348;28;20041;-75
2021/12/10 00:57:22;;;;;;;34.13;14.90;;;;;;;;;;5030233;28;20187;-76
2021/12/10 00:59:48;;;;;;;40.53;15.48;;;;;;;;;;5013641;28;20104;-76
2021/12/10 01:02:16;;;;;;;37.58;12.85;;;;;;;;;;5013510;28;20557;-76
2021/12/10 01:04:43;;;;;;;35.75;14.25;;;;;;;;;;5030197;28;20045;-76
2021/12/10 01:07:14;;;;;;;35.28;14.55;;;;;;;;;;5030004;28;20056;-76
2021/12/10 01:09:43;;;;;;;37.67;15.38;;;;;;;;;;5030013;28;20040;-76
2021/12/10 01:12:19;;;;;;;37.13;14.13;;;;;;;;;;5029801;28;20041;-76
2021/12/10 01:25:40;;;;;;;37.60;13.13;;;;;;;;;;5030110;28;20046;-76
2021/12/10 01:28:07;;;;;;;36.65;13.85;;;;;;;;;;5030163;28;20042;-76
2021/12/10 01:30:36;;;;;;;32.80;13.02;;;;;;;;;;5013258;28;20448;-76
2021/12/10 01:33:10;;;;;;;29.92;12.68;;;;;;;;;;5013619;28;20527;-76
2021/12/10 01:35:38;;;;;;;32.85;13.63;;;;;;;;;;5033162;28;20562;-77
2021/12/10 01:38:06;;;;;;;31.50;12.95;;;;;;;;;;5033473;28;20045;-76
2021/12/10 01:40:34;;;;;;;33.08;13.40;;;;;;;;;;5033429;28;20508;-76
2021/12/10 01:43:06;;;;;;;39.28;14.23;;;;;;;;;;5033419;28;20034;-77
2021/12/10 01:45:34;;;;;;;35.97;12.75;;;;;;;;;;5017008;28;20044;-76
2021/12/10 01:48:03;;;;;;;28.02;12.18;;;;;;;;;;5016907;28;20509;-77
2021/12/10 01:50:29;;;;;;;30.35;13.88;;;;;;;;;;5016713;28;20055;-76
2021/12/10 01:52:56;;;;;;;31.05;11.90;;;;;;;;;;5033225;28;20041;-76
2021/12/10 01:55:23;;;;;;;29.95;11.57;;;;;;;;;;5033411;28;20037;-76
2021/12/10 01:57:50;;;;;;;29.80;12.98;;;;;;;;;;5033053;28;20048;-76
2021/12/10 02:00:17;;;;;;;34.17;13.35;;;;;;;;;;5032965;28;20555;-76
2021/12/10 02:02:44;;;;;;;30.55;13.18;;;;;;;;;;5016499;28;20087;-76
2021/12/10 02:05:11;;;;;;;25.75;11.70;;;;;;;;;;5016447;28;20033;-76
2021/12/10 02:07:37;;;;;;;29.38;11.90;;;;;;;;;;5032993;28;20091;-76
2021/12/10 02:10:05;;;;;;;30.23;11.95;;;;;;;;;;5016356;28;20133;-76
2021/12/10 02:12:31;;;;;;;34.35;12.90;;;;;;;;;;5032780;28;20111;-76
2021/12/10 02:15:02;;;;;;;28.92;11.23;;;;;;;;;;5033114;28;20041;-76
2021/12/10 02:17:31;;;;;;;26.00;11.88;;;;;;;;;;5033343;28;20067;-75
2021/12/10 02:19:59;;;;;;;26.48;11.90;;;;;;;;;;5032671;28;20084;-76
2021/12/10 02:22:25;;;;;;;30.15;12.13;;;;;;;;;;5032424;28;20432;-76
2021/12/10 02:24:51;;;;;;;29.30;12.25;;;;;;;;;;5032638;28;20037;-75
2021/12/10 02:27:17;;;;;;;28.55;12.05;;;;;;;;;;5016090;28;20038;-76
2021/12/10 02:29:43;;;;;;;26.80;11.35;;;;;;;;;;5016212;28;20190;-76
2021/12/10 02:32:10;;;;;;;27.77;11.75;;;;;;;;;;5015974;28;20037;-76
2021/12/10 02:34:36;;;;;;;25.67;11.90;;;;;;;;;;5032703;28;20053;-77
2021/12/10 02:37:03;;;;;;;24.13;11.75;;;;;;;;;;5032378;28;20041;-75
2021/12/10 02:39:29;;;;;;;24.02;10.43;;;;;;;;;;5015856;28;20052;-76
2021/12/10 02:41:55;;;;;;;24.02;11.05;;;;;;;;;;5032166;28;20057;-75
2021/12/10 02:44:25;;;;;;;23.92;10.82;;;;;;;;;;5032219;28;20449;-75
2021/12/10 02:46:51;;;;;;;24.02;11.18;;;;;;;;;;5032374;28;20037;-75
2021/12/10 02:49:18;;;;;;;30.30;10.93;;;;;;;;;;5032194;28;20037;-76
2021/12/10 02:51:44;;;;;;;18.75;9.00;;;;;;;;;;5015857;28;20045;-75
2021/12/10 02:54:12;;;;;;;20.88;8.40;;;;;;;;;;5015656;28;20037;-75
2021/12/10 02:56:39;;;;;;;17.83;7.60;;;;;;;;;;5032624;28;20041;-75
2021/12/10 02:59:05;;;;;;;19.55;7.72;;;;;;;;;;5032142;28;20513;-76
2021/12/10 03:01:37;;;;;;;18.33;8.43;;;;;;;;;;5031707;28;20033;-74
2021/12/10 03:04:03;;;;;;;20.10;9.45;;;;;;;;;;5031934;28;20049;-76
2021/12/10 03:06:30;;;;;;;20.77;8.40;;;;;;;;;;5031888;28;20041;-77
2021/12/10 03:08:56;;;;;;;18.98;7.95;;;;;;;;;;5031823;28;20099;-76
2021/12/10 03:11:24;;;;;;;17.65;8.65;;;;;;;;;;5015468;28;20056;-77
2021/12/10 03:13:50;;;;;;;19.65;8.85;;;;;;;;;;5031778;28;20520;-76
2021/12/10 03:16:16;;;;;;;18.50;8.90;;;;;;;;;;5015260;28;20435;-75
2021/12/10 03:18:42;;;;;;;27.75;9.55;;;;;;;;;;5015157;28;20064;-76
2021/12/10 03:21:12;;;;;;;22.50;9.52;;;;;;;;;;5031803;28;20033;-76
2021/12/10 03:23:42;;;;;;;23.70;9.52;;;;;;;;;;5031292;28;20053;-76
2021/12/10 03:26:09;;;;;;;21.63;9.30;;;;;;;;;;5031516;28;20398;-77
2021/12/10 03:28:35;;;;;;;18.67;8.60;;;;;;;;;;5015190;28;20034;-77
2021/12/10 03:31:01;;;;;;;18.95;8.45;;;;;;;;;;5014990;28;20037;-75
2021/12/10 03:33:27;;;;;;;23.83;9.75;;;;;;;;;;5015061;28;20480;-77
2021/12/10 03:35:53;;;;;;;15.20;8.45;;;;;;;;;;5031595;28;20482;-77
2021/12/10 03:38:21;;;;;;;21.58;9.32;;;;;;;;;;5031186;28;20091;-76
2021/12/10 03:40:47;;;;;;;20.50;9.43;;;;;;;;;;5031133;28;20033;-77
2021/12/10 03:43:14;;;;;;;25.42;9.68;;;;;;;;;;5031010;28;20042;-76
2021/12/10 03:45:43;;;;;;;21.33;9.63;;;;;;;;;;5014481;28;20033;-78
2021/12/10 03:48:11;;;;;;;24.70;9.38;;;;;;;;;;5031254;28;20069;-75
2021/12/10 03:50:38;;;;;;;23.52;8.90;;;;;;;;;;5014559;28;20045;-76
2021/12/10 03:53:04;;;;;;;18.17;8.95;;;;;;;;;;5014452;28;20406;-77
2021/12/10 03:55:30;;;;;;;22.42;9.48;;;;;;;;;;5014465;28;20076;-77
2021/12/10 03:57:57;;;;;;;20.42;9.98;;;;;;;;;;5030408;28;20497;-77
2021/12/10 04:00:25;;;;;;;29.33;11.40;;;;;;;;;;5030875;28;20489;-77
2021/12/10 04:02:52;;;;;;;23.20;10.98;;;;;;;;;;5030867;28;20124;-75
2021/12/10 04:05:18;;;;;;;23.58;11.07;;;;;;;;;;5014331;28;20041;-75
2021/12/10 04:07:44;;;;;;;26.35;10.68;;;;;;;;;;5014444;28;20175;-77
2021/12/10 04:10:11;;;;;;;28.15;12.30;;;;;;;;;;5030988;28;20045;-75
2021/12/10 04:12:37;;;;;;;23.17;10.68;;;;;;;;;;5014464;28;20500;-77
2021/12/10 04:15:04;;;;;;;28.80;12.43;;;;;;;;;;5014189;28;20073;-77
2021/12/10 04:17:30;;;;;;;27.85;12.27;;;;;;;;;;5030933;28;20478;-77
2021/12/10 04:19:56;;;;;;;26.88;12.45;;;;;;;;;;5013941;28;20103;-76
2021/12/10 04:22:23;;;;;;;27.08;12.10;;;;;;;;;;5030304;28;20112;-77
2021/12/10 04:24:49;;;;;;;26.92;13.57;;;;;;;;;;5030477;28;20500;-76
2021/12/10 04:27:17;;;;;;;22.35;11.13;;;;;;;;;;5030407;28;20426;-76
2021/12/10 04:29:43;;;;;;;28.08;14.13;;;;;;;;;;5030453;28;20065;-76
2021/12/10 04:32:10;;;;;;;29.25;13.35;;;;;;;;;;5013992;28;20048;-76
2021/12/10 04:34:37;;;;;;;26.27;12.07;;;;;;;;;;5030523;28;20041;-76
2021/12/10 04:37:04;;;;;;;26.05;12.88;;;;;;;;;;5030667;28;20048;-77
2021/12/10 04:39:30;;;;;;;23.85;12.40;;;;;;;;;;5030320;28;20083;-77
2021/12/10 04:41:57;;;;;;;30.55;13.63;;;;;;;;;;5030169;28;20125;-77
2021/12/10 04:44:23;;;;;;;24.60;12.32;;;;;;;;;;5013911;28;20091;-78
2021/12/10 04:46:49;;;;;;;29.80;13.23;;;;;;;;;;5030156;28;20114;-77
2021/12/10 04:49:17;;;;;;;24.63;12.45;;;;;;;;;;5030699;28;20064;-77
2021/12/10 04:51:50;;;;;;;23.33;12.73;;;;;;;;;;5030471;28;20042;-76
2021/12/10 04:54:16;;;;;;;27.33;13.35;;;;;;;;;;5030293;28;20061;-77
2021/12/10 04:56:43;;;;;;;27.85;12.93;;;;;;;;;;5013734;28;20079;-77
2021/12/10 04:59:10;;;;;;;25.80;12.13;;;;;;;;;;5013958;28;20052;-77
2021/12/10 05:01:37;;;;;;;26.25;12.15;;;;;;;;;;5013708;28;20045;-77
2021/12/10 05:04:05;;;;;;;29.00;12.68;;;;;;;;;;5013830;28;20123;-77
2021/12/10 05:06:31;;;;;;;29.42;13.52;;;;;;;;;;5030052;28;20053;-76
2021/12/10 05:08:57;;;;;;;25.25;12.32;;;;;;;;;;5014463;28;20131;-77
2021/12/10 05:11:23;;;;;;;33.42;14.38;;;;;;;;;;5034313;28;20041;-76
2021/12/10 05:13:50;;;;;;;26.70;13.27;;;;;;;;;;5033819;28;20095;-77
2021/12/10 05:16:17;;;;;;;32.60;14.48;;;;;;;;;;5017521;28;20132;-76
2021/12/10 05:18:46;;;;;;;31.67;14.15;;;;;;;;;;5017609;28;20041;-76
2021/12/10 05:21:13;;;;;;;28.95;13.90;;;;;;;;;;5017347;28;20037;-76
2021/12/10 05:23:39;;;;;;;30.98;14.43;;;;;;;;;;5017072;28;20049;-77
2021/12/10 05:26:05;;;;;;;33.80;14.43;;;;;;;;;;5017391;28;20045;-77
2021/12/10 05:28:32;;;;;;;32.53;13.55;;;;;;;;;;5033951;28;20052;-77
2021/12/10 05:30:59;;;;;;;28.15;13.63;;;;;;;;;;5033963;28;20048;-77
2021/12/10 05:33:27;;;;;;;31.10;14.52;;;;;;;;;;5033581;28;20432;-77
2021/12/10 05:35:53;;;;;;;29.65;13.30;;;;;;;;;;5017081;28;20071;-77
2021/12/10 05:38:21;;;;;;;32.08;13.90;;;;;;;;;;5033813;28;20505;-77
2021/12/10 05:40:48;;;;;;;28.85;13.63;;;;;;;;;;5033485;28;20529;-77
2021/12/10 05:43:14;;;;;;;34.40;14.40;;;;;;;;;;5016816;28;20033;-76
2021/12/10 05:45:40;;;;;;;29.80;13.13;;;;;;;;;;5033295;28;20041;-76
2021/12/10 05:48:06;;;;;;;29.88;12.15;;;;;;;;;;5017167;28;20547;-77
2021/12/10 05:50:33;;;;;;;27.58;12.43;;;;;;;;;;5016957;28;20046;-76
2021/12/10 05:52:59;;;;;;;31.13;13.15;;;;;;;;;;5016780;28;20041;-76
2021/12/10 05:55:25;;;;;;;27.38;13.15;;;;;;;;;;5033168;28;20488;-77
2021/12/10 05:57:52;;;;;;;33.10;13.15;;;;;;;;;;5017093;28;20091;-77
2021/12/10 06:00:20;;;;;;;30.40;14.02;;;;;;;;;;5033283;28;20518;-76
2021/12/10 06:02:46;;;;;;;31.40;13.20;;;;;;;;;;5032879;28;20052;-76
2021/12/10 06:05:12;;;;;;;31.55;12.48;;;;;;;;;;5016672;28;20046;-77
2021/12/10 06:07:38;;;;;;;31.80;13.57;;;;;;;;;;5032975;28;20072;-76
2021/12/10 06:10:05;;;;;;;26.73;12.77;;;;;;;;;;5016458;28;20041;-76
2021/12/10 06:12:31;;;;;;;28.45;13.05;;;;;;;;;;5033356;28;20068;-76
2021/12/10 06:14:57;;;;;;;28.02;12.25;;;;;;;;;;5033050;28;20512;-76
2021/12/10 06:17:23;;;;;;;26.83;12.00;;;;;;;;;;5033034;28;20128;-77
2021/12/10 06:19:49;;;;;;;24.55;11.75;;;;;;;;;;5016054;28;20080;-76
2021/12/10 06:22:15;;;;;;;25.48;11.68;;;;;;;;;;5032537;28;20061;-76
2021/12/10 06:24:41;;;;;;;21.98;10.98;;;;;;;;;;5032851;28;20049;-76
2021/12/10 06:27:07;;;;;;;25.92;11.85;;;;;;;;;;5032627;28;20041;-76
2021/12/10 06:29:35;;;;;;;25.55;10.80;;;;;;;;;;5018686;28;20045;-76
2021/12/10 06:32:01;;;;;;;22.40;10.30;;;;;;;;;;5032494;28;20045;-76
2021/12/10 06:34:27;;;;;;;23.23;9.80;;;;;;;;;;5016162;28;20045;-76
2021/12/10 06:36:53;;;;;;;17.83;8.40;;;;;;;;;;5032715;28;20050;-76
2021/12/10 06:39:20;;;;;;;20.45;9.85;;;;;;;;;;5015837;28;20124;-76
2021/12/10 06:41:50;;;;;;;22.83;10.48;;;;;;;;;;5015933;28;20042;-76
2021/12/10 06:44:17;;;;;;;17.95;9.23;;;;;;;;;;5015699;28;20049;-76
2021/12/10 06:46:43;;;;;;;20.27;9.65;;;;;;;;;;5032646;28;20037;-76
2021/12/10 06:49:09;;;;;;;21.70;10.40;;;;;;;;;;5016619;28;20145;-75
2021/12/10 06:51:35;;;;;;;16.05;8.95;;;;;;;;;;5016340;28;20140;-76
2021/12/10 06:54:01;;;;;;;20.17;8.85;;;;;;;;;;5032741;28;20060;-76
2021/12/10 06:56:29;;;;;;;16.15;8.05;;;;;;;;;;5015449;28;20433;-76
2021/12/10 06:58:55;;;;;;;23.23;9.48;;;;;;;;;;5028542;28;20056;-76
2021/12/10 07:01:23;;;;;;;19.13;9.15;;;;;;;;;;5011727;28;20425;-76
2021/12/10 07:03:50;;;;;;;17.55;8.13;;;;;;;;;;5027981;28;20076;-77
2021/12/10 07:06:17;;;;;;;21.67;8.63;;;;;;;;;;5012205;28;20398;-76
2021/12/10 07:08:43;;;;;;;16.48;8.02;;;;;;;;;;5011875;28;20056;-76
2021/12/10 07:11:11;;;;;;;18.42;8.45;;;;;;;;;;5011668;28;20045;-76
2021/12/10 07:13:37;;;;;;;20.08;8.45;;;;;;;;;;5012193;28;20058;-76
2021/12/10 07:16:04;;;;;;;16.63;8.40;;;;;;;;;;5011174;28;20095;-77
2021/12/10 07:18:33;;;;;;;17.95;7.63;;;;;;;;;;5028285;28;20398;-77
2021/12/10 07:21:00;;;;;;;18.08;8.02;;;;;;;;;;5011682;28;20052;-76
2021/12/10 07:23:26;;;;;;;16.73;8.45;;;;;;;;;;5011623;28;20049;-76
2021/12/10 07:25:52;;;;;;;14.60;7.82;;;;;;;;;;5011605;28;20073;-75
2021/12/10 07:28:19;;;;;;;18.10;8.07;;;;;;;;;;5027599;28;20033;-76
2021/12/10 07:30:45;;;;;;;18.20;7.57;;;;;;;;;;5027922;28;20076;-75
2021/12/10 07:33:11;;;;;;;19.15;7.82;;;;;;;;;;5027008;28;20049;-76
2021/12/10 07:35:38;;;;;;;15.88;7.20;;;;;;;;;;5028002;28;20049;-76
2021/12/10 07:38:04;;;;;;;18.65;7.97;;;;;;;;;;5027321;28;20042;-75
2021/12/10 07:40:31;;;;;;;20.45;7.82;;;;;;;;;;5027711;28;20506;-76
2021/12/10 07:42:58;;;;;;;19.27;7.50;;;;;;;;;;5027424;28;20128;-77
2021/12/10 07:45:24;;;;;;;18.08;8.35;;;;;;;;;;5011277;28;20041;-76
2021/12/10 07:47:52;;;;;;;14.93;7.93;;;;;;;;;;5028069;28;20052;-76
2021/12/10 07:50:23;;;;;;;21.48;8.05;;;;;;;;;;5014292;28;20094;-76
2021/12/10 07:52:50;;;;;;;14.35;7.40;;;;;;;;;;5015683;28;20110;-75
2021/12/10 07:55:16;;;;;;;15.95;6.88;;;;;;;;;;5014933;28;20080;-75
2021/12/10 07:57:43;;;;;;;16.25;6.72;;;;;;;;;;5015363;28;20048;-75
2021/12/10 08:00:11;;;;;;;16.65;7.75;;;;;;;;;;5014801;28;20048;-75
2021/12/10 08:02:37;;;;;;;16.63;6.40;;;;;;;;;;5014929;28;20045;-75
2021/12/10 08:05:04;;;;;;;22.23;7.28;;;;;;;;;;5031097;28;20033;-75
2021/12/10 08:07:30;;;;;;;14.70;7.22;;;;;;;;;;5014349;28;20041;-75
2021/12/10 08:09:56;;;;;;;14.18;6.85;;;;;;;;;;5014340;28;20052;-76
2021/12/10 08:12:22;;;;;;;16.65;7.65;;;;;;;;;;5030720;28;20044;-75
2021/12/10 08:14:52;;;;;;;15.25;6.45;;;;;;;;;;5030573;28;20417;-75
2021/12/10 08:17:19;;;;;;;12.43;6.90;;;;;;;;;;5014289;28;20049;-75
2021/12/10 08:19:45;;;;;;;15.73;7.05;;;;;;;;;;5014081;28;20080;-75
2021/12/10 08:22:11;;;;;;;15.23;6.50;;;;;;;;;;5030301;28;20053;-75
2021/12/10 08:24:37;;;;;;;17.38;6.68;;;;;;;;;;5030520;28;20045;-75
2021/12/10 08:27:03;;;;;;;14.63;6.97;;;;;;;;;;5014355;28;20127;-75
2021/12/10 08:29:29;;;;;;;13.82;6.30;;;;;;;;;;5030529;28;20051;-75
2021/12/10 08:31:55;;;;;;;17.88;6.70;;;;;;;;;;5030606;28;20100;-75
2021/12/10 08:34:22;;;;;;;14.38;7.18;;;;;;;;;;5014229;28;20090;-76
2021/12/10 08:36:48;;;;;;;11.52;6.15;;;;;;;;;;5030270;28;20053;-76
2021/12/10 08:39:15;;;;;;;19.10;6.72;;;;;;;;;;5014010;28;20577;-75
2021/12/10 08:41:41;;;;;;;14.18;7.00;;;;;;;;;;5030153;28;20115;-75
2021/12/10 08:44:08;;;;;;;15.50;6.38;;;;;;;;;;5030499;28;20033;-75
2021/12/10 08:46:35;;;;;;;16.17;6.68;;;;;;;;;;5013751;28;20041;-75
2021/12/10 08:49:01;;;;;;;15.90;7.00;;;;;;;;;;5013664;28;20037;-75
2021/12/10 08:51:30;;;;;;;14.57;6.93;;;;;;;;;;5014097;28;20492;-75
2021/12/10 08:53:56;;;;;;;13.85;6.13;;;;;;;;;;5030071;28;20493;-75
2021/12/10 08:56:22;;;;;;;12.63;6.03;;;;;;;;;;5013532;28;20041;-75
2021/12/10 08:58:49;;;;;;;16.20;7.22;;;;;;;;;;5030028;28;20045;-75
2021/12/10 09:01:17;;;;;;;14.13;5.70;;;;;;;;;;5030019;28;20049;-75
2021/12/10 09:03:44;;;;;;;15.18;6.70;;;;;;;;;;5013614;28;20076;-75
2021/12/10 09:06:10;;;;;;;15.27;7.10;;;;;;;;;;5013825;28;20539;-75
2021/12/10 09:08:37;;;;;;;15.80;7.05;;;;;;;;;;5022263;28;20037;-75
2021/12/10 09:11:04;;;;;;;12.52;6.18;;;;;;;;;;5033783;28;20473;-76
2021/12/10 09:13:30;;;;;;;14.65;6.20;;;;;;;;;;5033741;28;20480;-75
2021/12/10 09:15:58;;;;;;;16.55;6.82;;;;;;;;;;5033314;28;20073;-75
2021/12/10 09:18:25;;;;;;;11.73;5.78;;;;;;;;;;5032791;28;20123;-75
2021/12/10 09:20:52;;;;;;;13.93;6.28;;;;;;;;;;5049885;28;20396;-75
2021/12/10 09:23:20;;;;;;;13.27;6.43;;;;;;;;;;5033328;28;20049;-75
2021/12/10 09:25:46;;;;;;;14.73;6.45;;;;;;;;;;5049498;28;20074;-75
2021/12/10 09:28:12;;;;;;;16.75;6.70;;;;;;;;;;5049453;28;20124;-74
2021/12/10 09:30:40;;;;;;;15.20;7.00;;;;;;;;;;5049826;28;20048;-75
2021/12/10 09:33:06;;;;;;;13.32;6.30;;;;;;;;;;5049678;28;20037;-74
2021/12/10 09:35:33;;;;;;;17.40;7.28;;;;;;;;;;5049760;28;20496;-75
2021/12/10 09:38:00;;;;;;;13.93;6.47;;;;;;;;;;5049739;28;20048;-75
2021/12/10 09:40:30;;;;;;;13.27;6.38;;;;;;;;;;5049422;28;20404;-75
2021/12/10 09:42:56;;;;;;;16.13;7.30;;;;;;;;;;5049330;28;20142;-75
2021/12/10 09:45:24;;;;;;;13.02;6.10;;;;;;;;;;5049426;28;20413;-76
2021/12/10 09:47:50;;;;;;;13.00;6.13;;;;;;;;;;5049670;28;20045;-75
2021/12/10 09:50:18;;;;;;;14.68;6.70;;;;;;;;;;5049695;28;20052;-75
2021/12/10 09:52:44;;;;;;;16.15;6.38;;;;;;;;;;5049450;28;20045;-75
2021/12/10 09:55:12;;;;;;;12.57;6.13;;;;;;;;;;5050599;28;20044;-75
2021/12/10 09:57:39;;;;;;;12.50;6.40;;;;;;;;;;5053138;28;20037;-75
2021/12/10 10:00:09;;;;;;;11.20;6.07;;;;;;;;;;5053019;28;20451;-75
2021/12/10 10:02:36;;;;;;;14.25;6.40;;;;;;;;;;5053109;28;20037;-75
2021/12/10 10:05:03;;;;;;;14.77;6.45;;;;;;;;;;5053445;28;20039;-74
2021/12/10 10:07:30;;;;;;;14.25;6.28;;;;;;;;;;5053202;28;20083;-75
2021/12/10 10:09:57;;;;;;;12.88;5.70;;;;;;;;;;5052746;28;20132;-74
2021/12/10 10:12:25;;;;;;;15.43;5.68;;;;;;;;;;5052751;28;20095;-74
2021/12/10 10:14:51;;;;;;;12.88;6.10;;;;;;;;;;5052804;28;20048;-74
2021/12/10 10:17:18;;;;;;;13.50;5.82;;;;;;;;;;5052857;28;20094;-75
2021/12/10 10:19:44;;;;;;;12.88;5.53;;;;;;;;;;5052632;28;20056;-74
2021/12/10 10:22:13;;;;;;;7.72;4.75;;;;;;;;;;5052752;28;20064;-75
2021/12/10 10:24:39;;;;;;;9.43;5.57;;;;;;;;;;5052531;28;20074;-75
2021/12/10 10:27:08;;;;;;;9.52;5.18;;;;;;;;;;5052875;28;20041;-74
2021/12/10 10:29:35;;;;;;;16.75;5.72;;;;;;;;;;5052663;28;20182;-77
2021/12/10 10:32:09;;;;;;;11.10;5.18;;;;;;;;;;5052972;28;20107;-75
2021/12/10 10:34:36;;;;;;;12.73;5.47;;;;;;;;;;5052869;28;20095;-75
2021/12/10 10:37:03;;;;;;;12.25;4.97;;;;;;;;;;5052403;28;20051;-76
2021/12/10 10:39:34;;;;;;;9.50;4.75;;;;;;;;;;5052484;28;20041;-75
2021/12/10 10:42:02;;;;;;;7.50;4.40;;;;;;;;;;5052894;28;20041;-75
2021/12/10 10:44:28;;;;;;;10.38;4.47;;;;;;;;;;5052815;28;20128;-76
2021/12/10 10:46:59;;;;;;;10.15;4.70;;;;;;;;;;5053164;28;20076;-76
2021/12/10 10:49:37;;;;;;;9.15;4.80;;;;;;;;;;5053136;28;20038;-75
2021/12/10 10:52:15;;;;;;;12.60;4.78;;;;;;;;;;5052634;28;20037;-77
2021/12/10 10:54:41;;;;;;;7.88;4.53;;;;;;;;;;5052733;28;20055;-76
2021/12/10 10:57:16;;;;;;;11.02;5.18;;;;;;;;;;5052496;28;20045;-77
2021/12/10 10:59:42;;;;;;;7.72;4.25;;;;;;;;;;5051685;28;20049;-75
2021/12/10 11:02:10;;;;;;;9.07;4.25;;;;;;;;;;5049756;28;20048;-76
2021/12/10 11:04:45;;;;;;;7.28;4.45;;;;;;;;;;5049483;28;20080;-75
2021/12/10 11:07:14;;;;;;;7.05;3.88;;;;;;;;;;5048327;28;20393;-76
2021/12/10 11:09:49;;;;;;;9.23;4.35;;;;;;;;;;5037417;28;20402;-75
2021/12/10 11:12:35;;;;;;;10.63;4.22;;;;;;;;;;5013357;28;20045;-75
2021/12/10 11:15:03;;;;;;;10.25;4.80;;;;;;;;;;5029544;28;20045;-76
2021/12/10 11:17:34;;;;;;;10.00;4.22;;;;;;;;;;5012944;28;20052;-75
2021/12/10 11:20:06;;;;;;;9.18;4.22;;;;;;;;;;5029023;28;20401;-75
2021/12/10 11:22:33;;;;;;;7.75;4.18;;;;;;;;;;5011440;28;20409;-75
2021/12/10 11:25:02;;;;;;;9.50;4.70;;;;;;;;;;5028188;28;20049;-75
2021/12/10 11:27:31;;;;;;;8.60;4.43;;;;;;;;;;5028506;28;20120;-75
2021/12/10 11:30:06;;;;;;;7.85;3.58;;;;;;;;;;5011109;28;20151;-75
2021/12/10 11:32:45;;;;;;;11.63;4.70;;;;;;;;;;5028284;28;20037;-75
2021/12/10 11:35:13;;;;;;;5.53;3.65;;;;;;;;;;5011602;28;20487;-75
2021/12/10 11:37:41;;;;;;;7.68;4.50;;;;;;;;;;5011425;28;20045;-75
2021/12/10 11:40:31;;;;;;;5.88;3.65;;;;;;;;;;5027704;28;20045;-75
2021/12/10 11:43:04;;;;;;;8.73;4.30;;;;;;;;;;5019128;28;20057;-75
2021/12/10 11:45:45;;;;;;;7.22;3.95;;;;;;;;;;5027562;28;20044;-75
2021/12/10 11:48:19;;;;;;;5.95;3.20;;;;;;;;;;5027808;28;20148;-75
2021/12/10 11:50:47;;;;;;;8.02;4.25;;;;;;;;;;5027894;28;20497;-75
2021/12/10 11:53:15;;;;;;;5.72;3.45;;;;;;;;;;5027041;28;20410;-75
2021/12/10 11:56:03;;;;;;;6.57;3.85;;;;;;;;;;5010797;28;20049;-74
2021/12/10 11:58:29;;;;;;;7.25;4.13;;;;;;;;;;5010938;28;20045;-75
2021/12/10 12:00:55;;;;;;;7.53;4.18;;;;;;;;;;5010871;28;20049;-75
2021/12/10 12:03:28;;;;;;;9.65;3.95;;;;;;;;;;5027189;28;20077;-75
2021/12/10 12:05:54;;;;;;;6.70;4.03;;;;;;;;;;5010792;28;20468;-75
2021/12/10 12:08:21;;;;;;;8.20;4.78;;;;;;;;;;5010667;28;20037;-75
2021/12/10 12:10:48;;;;;;;6.50;3.10;;;;;;;;;;5045220;28;20091;-75
2021/12/10 12:15:46;;;;;;;7.25;3.85;;;;;;;;;;5046511;28;20049;-75
2021/12/10 12:18:14;;;;;;;8.30;3.47;;;;;;;;;;5030935;28;20404;-75
2021/12/10 12:20:52;;;;;;;7.00;3.92;;;;;;;;;;5048237;28;20102;-74
2021/12/10 12:24:57;;;;;;;8.95;3.33;;;;;;;;;;5031527;28;20061;-74
2021/12/10 12:26:18;;;;;;;8.15;3.53;;;;;;;;;;5046945;28;20216;-74
2021/12/10 12:28:47;;;;;;;8.18;3.60;;;;;;;;;;5046705;28;20075;-74
2021/12/10 12:31:15;;;;;;;5.25;3.25;;;;;;;;;;5046830;28;20040;-74
2021/12/10 12:33:59;;;;;;;8.90;3.60;;;;;;;;;;5047524;28;20037;-74
2021/12/10 12:36:31;;;;;;;7.00;3.17;;;;;;;;;;5047012;28;20075;-74
2021/12/10 12:38:57;;;;;;;5.78;3.05;;;;;;;;;;5047038;28;20504;-74
2021/12/10 12:41:25;;;;;;;7.25;4.32;;;;;;;;;;5046285;28;20045;-75
2021/12/10 12:44:09;;;;;;;7.13;3.88;;;;;;;;;;5047365;28;20488;-74
2021/12/10 12:46:53;;;;;;;8.77;4.03;;;;;;;;;;5046881;28;20048;-74
2021/12/10 12:49:19;;;;;;;11.88;4.28;;;;;;;;;;5046632;28;20505;-74
2021/12/10 12:52:02;;;;;;;8.20;3.58;;;;;;;;;;5046546;28;20045;-75
2021/12/10 12:54:29;;;;;;;11.20;3.88;;;;;;;;;;5046163;28;20041;-75
2021/12/10 12:56:55;;;;;;;7.13;3.60;;;;;;;;;;5046962;28;20044;-74
2021/12/10 12:59:21;;;;;;;7.57;3.40;;;;;;;;;;5046594;28;20386;-74
2021/12/10 13:01:50;;;;;;;9.32;4.57;;;;;;;;;;5046815;28;20040;-74
2021/12/10 13:04:19;;;;;;;6.25;3.42;;;;;;;;;;5046709;28;20504;-74
2021/12/10 13:06:54;;;;;;;8.10;3.63;;;;;;;;;;5045881;28;20142;-74
2021/12/10 13:09:23;;;;;;;7.03;3.55;;;;;;;;;;5046638;28;20124;-74
2021/12/10 13:14:22;;;;;;;6.80;3.92;;;;;;;;;;5047157;28;20049;-75
2021/12/10 13:16:59;;;;;;;9.93;4.03;;;;;;;;;;5047296;28;20051;-74
2021/12/10 13:19:27;;;;;;;8.90;3.90;;;;;;;;;;5047912;28;20570;-75
2021/12/10 13:22:01;;;;;;;12.10;4.00;;;;;;;;;;5047922;28;20520;-74
2021/12/10 13:24:28;;;;;;;6.80;4.00;;;;;;;;;;5049943;28;20044;-73
2021/12/10 13:26:57;;;;;;;11.98;4.20;;;;;;;;;;5049667;28;20044;-74
2021/12/10 13:29:23;;;;;;;7.10;3.75;;;;;;;;;;5032837;28;20051;-74
2021/12/10 13:31:49;;;;;;;9.45;3.97;;;;;;;;;;5053038;28;20047;-75
2021/12/10 13:34:15;;;;;;;10.80;4.10;;;;;;;;;;5036938;28;20051;-74
2021/12/10 13:36:41;;;;;;;9.15;4.50;;;;;;;;;;5053649;28;20036;-74
2021/12/10 13:39:11;;;;;;;9.23;4.18;;;;;;;;;;5037195;28;20048;-75
2021/12/10 13:41:37;;;;;;;8.65;3.63;;;;;;;;;;5052887;28;20476;-74
2021/12/10 13:44:09;;;;;;;8.45;4.15;;;;;;;;;;5053410;28;20041;-74
2021/12/10 13:46:46;;;;;;;7.60;4.32;;;;;;;;;;5036661;28;20056;-74
2021/12/10 13:49:12;;;;;;;10.32;4.07;;;;;;;;;;5053689;28;20052;-74
2021/12/10 13:51:43;;;;;;;9.57;4.95;;;;;;;;;;5037586;28;20166;-74
2021/12/10 13:54:35;;;;;;;8.90;3.88;;;;;;;;;;5036226;28;20044;-74
2021/12/10 13:57:04;;;;;;;7.85;3.78;;;;;;;;;;5032158;28;20131;-75
2021/12/10 13:59:32;;;;;;;10.02;4.53;;;;;;;;;;5052904;28;20119;-74
2021/12/10 14:02:04;;;;;;;9.15;4.65;;;;;;;;;;5052958;28;20530;-74
2021/12/10 14:04:32;;;;;;;8.43;4.00;;;;;;;;;;5036653;28;20036;-75
2021/12/10 14:07:07;;;;;;;8.25;4.30;;;;;;;;;;5052896;28;20402;-74
2021/12/10 14:09:43;;;;;;;9.82;4.30;;;;;;;;;;5035954;28;20067;-74
2021/12/10 14:12:34;;;;;;;8.63;4.10;;;;;;;;;;5052879;28;20605;-74
2021/12/10 14:15:03;;;;;;;11.15;4.13;;;;;;;;;;5053011;28;20503;-74
2021/12/10 14:17:30;;;;;;;11.23;4.68;;;;;;;;;;5052200;28;20044;-74
2021/12/10 14:19:58;;;;;;;8.38;4.45;;;;;;;;;;5036030;28;20044;-75
2021/12/10 14:22:48;;;;;;;7.63;4.57;;;;;;;;;;5052294;28;20056;-75
2021/12/10 14:25:16;;;;;;;9.05;4.57;;;;;;;;;;5052390;28;20473;-74
2021/12/10 14:27:51;;;;;;;8.05;4.13;;;;;;;;;;5036350;28;20051;-74
2021/12/10 14:30:19;;;;;;;9.15;4.35;;;;;;;;;;5052206;28;20048;-74
2021/12/10 14:32:56;;;;;;;12.35;4.53;;;;;;;;;;5053152;28;20048;-74
2021/12/10 14:35:24;;;;;;;12.18;4.70;;;;;;;;;;5052729;28;20098;-75
2021/12/10 14:38:01;;;;;;;10.27;4.40;;;;;;;;;;5052095;28;20048;-75
2021/12/10 14:40:31;;;;;;;7.75;4.28;;;;;;;;;;5035016;28;20049;-74
2021/12/10 14:43:15;;;;;;;11.15;5.00;;;;;;;;;;5051648;28;20044;-74
2021/12/10 14:45:55;;;;;;;13.40;5.07;;;;;;;;;;5052343;28;20040;-74
2021/12/10 14:48:21;;;;;;;14.57;5.10;;;;;;;;;;5052140;28;20390;-74
2021/12/10 14:50:57;;;;;;;15.63;5.47;;;;;;;;;;5035192;28;20130;-74